Time;durP1;ratioP1;P1;durP2;ratioP2;P2;SDS_P1;SDS_P2;PMS_P1;PMS_P2;Temp;Humidity;BMP_temperature;BMP_pressure;BME280_temperature;BME280_humidity;BME280_pressure;Samples;Min_cycle;Max_cycle;Signal;HPM_P1;HPM_P2
2020/12/10 00:00:11;;;;;;;;;;;;;;;-3.14;96.43;92139.69;1063659;55;20185;-83
2020/12/10 00:01:11;;;;;;;;;;;;;;;-3.20;96.30;92151.56;1063658;55;20154;-83
2020/12/10 00:02:13;;;;;;;;;;;;;;;-3.19;96.92;92148.59;1063372;55;20190;-83
2020/12/10 00:03:13;;;;;;;;;;;;;;;-3.25;96.98;92142.16;1063509;55;20177;-81
2020/12/10 00:04:14;;;;;;;;;;;;;;;-3.35;97.20;92145.38;1065792;55;20269;-84
2020/12/10 00:05:15;;;;;;;;;;;;;;;-3.40;97.69;92137.84;1070265;55;20183;-84
2020/12/10 00:06:24;;;;;;;;;;;;;;;-3.43;97.08;92139.28;1067726;55;20609;-82
2020/12/10 00:07:26;;;;;;;;;;;;;;;-3.32;97.55;92140.22;1065952;55;20225;-83
2020/12/10 00:08:27;;;;;;;;;;;;;;;-3.22;96.78;92127.63;1065601;55;20697;-82
2020/12/10 00:09:27;;;;;;;;;;;;;;;-3.28;96.59;92135.03;1063445;55;20263;-82
2020/12/10 00:10:28;;;;;;;;;;;;;;;-3.33;96.60;92130.88;1061307;56;20185;-84
2020/12/10 00:11:28;;;;;;;;;;;;;;;-3.28;95.95;92134.28;1063381;55;20154;-83
2020/12/10 00:12:29;;;;;;;;;;;;;;;-3.36;95.71;92125.59;1067771;55;20685;-83
2020/12/10 00:13:29;;;;;;;;;;;;;;;-3.37;96.50;92126.69;1067712;55;20263;-83
2020/12/10 00:14:30;;;;;;;;;;;;;;;-3.40;96.95;92132.63;1065691;55;20178;-83
2020/12/10 00:15:31;;;;;;;;;;;;;;;-3.47;96.84;92132.50;1063490;55;20158;-84
2020/12/10 00:16:32;;;;;;;;;;;;;;;-3.42;96.99;92134.84;1065487;55;20300;-83
2020/12/10 00:17:32;;;;;;;;;;;;;;;-3.43;96.88;92126.22;1063223;55;20193;-84
2020/12/10 00:18:33;;;;;;;;;;;;;;;-3.43;96.75;92122.88;1063334;55;20259;-82
2020/12/10 00:19:33;;;;;;;;;;;;;;;-3.43;96.85;92128.09;1067653;55;20160;-84
2020/12/10 00:20:33;;;;;;;;;;;;;;;-3.51;96.32;92122.03;1065529;55;20162;-83
2020/12/10 00:21:34;;;;;;;;;;;;;;;-3.42;96.93;92127.75;1065523;55;20184;-83
2020/12/10 00:22:35;;;;;;;;;;;;;;;-3.39;96.63;92121.06;1063381;55;20189;-83
2020/12/10 00:23:35;;;;;;;;;;;;;;;-3.25;95.55;92123.84;1065495;55;20200;-82
2020/12/10 00:24:36;;;;;;;;;;;;;;;-3.28;95.49;92113.37;1067674;55;20192;-85
2020/12/10 00:25:36;;;;;;;;;;;;;;;-3.34;95.32;92124.12;1065524;55;20652;-83
2020/12/10 00:26:36;;;;;;;;;;;;;;;-3.36;95.94;92113.28;1065524;55;20161;-84
2020/12/10 00:27:37;;;;;;;;;;;;;;;-3.37;95.41;92111.03;1063284;55;20146;-83
2020/12/10 00:28:38;;;;;;;;;;;;;;;-3.35;95.75;92114.78;1063315;55;20154;-81
2020/12/10 00:29:38;;;;;;;;;;;;;;;-3.27;95.02;92112.28;1065372;55;20189;-83
2020/12/10 00:30:39;;;;;;;;;;;;;;;-3.39;95.71;92102.78;1063186;55;20188;-85
2020/12/10 00:31:39;;;;;;;;;;;;;;;-3.36;95.50;92102.84;1061184;56;20221;-82
2020/12/10 00:32:40;;;;;;;;;;;;;;;-3.28;94.76;92108.91;1061143;56;20162;-83
2020/12/10 00:33:40;;;;;;;;;;;;;;;-3.35;95.35;92112.16;1063331;55;20710;-84
2020/12/10 00:34:41;;;;;;;;;;;;;;;-3.38;95.82;92115.50;1065442;55;20165;-85
2020/12/10 00:35:42;;;;;;;;;;;;;;;-3.47;96.06;92109.00;1063210;55;20291;-83
2020/12/10 00:36:43;;;;;;;;;;;;;;;-3.50;96.06;92113.09;1063205;55;20724;-83
2020/12/10 00:37:43;;;;;;;;;;;;;;;-3.42;96.61;92108.72;1065382;55;20165;-82
2020/12/10 00:38:45;;;;;;;;;;;;;;;-3.49;97.41;92108.62;1065468;55;20204;-83
2020/12/10 00:39:45;;;;;;;;;;;;;;;-3.51;97.27;92103.75;1065718;55;20158;-83
2020/12/10 00:40:46;;;;;;;;;;;;;;;-3.45;97.55;92107.56;1067717;55;20160;-83
2020/12/10 00:41:51;;;;;;;;;;;;;;;-3.44;98.04;92101.22;1065598;55;20184;-83
2020/12/10 00:42:52;;;;;;;;;;;;;;;-3.41;98.34;92103.13;1065616;55;20165;-84
2020/12/10 00:43:52;;;;;;;;;;;;;;;-3.44;97.63;92101.22;1063189;55;20674;-82
2020/12/10 00:44:53;;;;;;;;;;;;;;;-3.30;97.69;92098.03;1067730;55;20157;-85
2020/12/10 00:45:54;;;;;;;;;;;;;;;-3.23;97.77;92102.63;1069743;55;20220;-85
2020/12/10 00:46:54;;;;;;;;;;;;;;;-3.29;97.08;92102.19;1065387;55;20890;-83
2020/12/10 00:47:55;;;;;;;;;;;;;;;-3.29;97.71;92102.19;1063568;55;20186;-84
2020/12/10 00:48:55;;;;;;;;;;;;;;;-3.26;98.42;92101.47;1063330;55;20169;-82
2020/12/10 00:49:56;;;;;;;;;;;;;;;-3.25;98.42;92089.91;1065604;55;20626;-83
2020/12/10 00:50:57;;;;;;;;;;;;;;;-3.27;98.36;92096.59;1063433;55;20157;-83
2020/12/10 00:51:57;;;;;;;;;;;;;;;-3.17;98.31;92101.19;1065512;55;20650;-84
2020/12/10 00:52:58;;;;;;;;;;;;;;;-3.17;99.22;92095.97;1065581;55;20158;-84
2020/12/10 00:53:58;;;;;;;;;;;;;;;-3.08;99.19;92091.22;1069846;55;20725;-83
2020/12/10 00:54:59;;;;;;;;;;;;;;;-3.10;98.90;92088.22;1070020;55;20189;-81
2020/12/10 00:55:59;;;;;;;;;;;;;;;-3.13;98.80;92083.69;1067781;55;20177;-83
2020/12/10 00:56:59;;;;;;;;;;;;;;;-3.09;98.36;92089.72;1065532;55;20172;-84
2020/12/10 00:58:00;;;;;;;;;;;;;;;-3.05;98.29;92095.75;1063341;55;20158;-83
2020/12/10 00:59:01;;;;;;;;;;;;;;;-2.99;98.58;92101.41;1067779;55;20262;-83
2020/12/10 01:00:04;;;;;;;;;;;;;;;-3.04;97.46;92092.78;1067579;55;20153;-83
2020/12/10 01:01:05;;;;;;;;;;;;;;;-2.98;97.30;92095.09;1065638;55;20444;-82
2020/12/10 01:02:06;;;;;;;;;;;;;;;-2.91;97.38;92088.06;1065461;55;20657;-82
2020/12/10 01:03:11;;;;;;;;;;;;;;;-2.80;97.76;92081.09;1065568;55;20682;-84
2020/12/10 01:04:12;;;;;;;;;;;;;;;-2.81;96.96;92081.44;1065596;55;20165;-82
2020/12/10 01:05:12;;;;;;;;;;;;;;;-2.89;97.07;92077.28;1063415;55;20162;-85
2020/12/10 01:06:13;;;;;;;;;;;;;;;-2.91;97.32;92077.62;1063171;56;20158;-83
2020/12/10 01:07:14;;;;;;;;;;;;;;;-2.94;97.37;92080.19;1065317;55;20258;-83
2020/12/10 01:08:15;;;;;;;;;;;;;;;-2.99;97.12;92078.62;1067610;55;20281;-83
2020/12/10 01:09:15;;;;;;;;;;;;;;;-2.98;97.65;92084.63;1067767;55;20192;-84
2020/12/10 01:10:18;;;;;;;;;;;;;;;-2.98;97.88;92077.53;1067713;55;20176;-84
2020/12/10 01:11:25;;;;;;;;;;;;;;;-2.89;97.53;92080.63;1063625;55;20192;-83
2020/12/10 01:12:25;;;;;;;;;;;;;;;-2.86;97.38;92081.78;1061659;55;20189;-84
2020/12/10 01:13:27;;;;;;;;;;;;;;;-2.86;97.08;92076.53;1061358;55;20221;-84
2020/12/10 01:14:28;;;;;;;;;;;;;;;-2.89;97.15;92082.50;1065821;55;20189;-82
2020/12/10 01:15:28;;;;;;;;;;;;;;;-2.84;97.69;92082.19;1065981;55;20173;-83
2020/12/10 01:16:29;;;;;;;;;;;;;;;-2.88;97.31;92082.13;1066022;55;20614;-83
2020/12/10 01:17:31;;;;;;;;;;;;;;;-2.88;97.66;92079.53;1065729;55;20302;-83
2020/12/10 01:18:31;;;;;;;;;;;;;;;-2.87;97.75;92077.66;1061628;56;20190;-83
2020/12/10 01:19:32;;;;;;;;;;;;;;;-2.77;97.63;92077.00;1063719;55;20196;-86
2020/12/10 01:20:36;;;;;;;;;;;;;;;-2.60;97.41;92076.44;1066133;55;20658;-83
2020/12/10 01:21:37;;;;;;;;;;;;;;;-2.61;96.84;92069.72;1063992;55;20162;-83
2020/12/10 01:22:37;;;;;;;;;;;;;;;-2.62;96.56;92073.44;1063758;55;20158;-83
2020/12/10 01:23:40;;;;;;;;;;;;;;;-2.63;96.67;92071.94;1063761;55;20158;-83
2020/12/10 01:24:40;;;;;;;;;;;;;;;-2.67;96.03;92073.78;1063844;55;20157;-84
2020/12/10 01:25:41;;;;;;;;;;;;;;;-2.70;96.53;92071.88;1065803;55;20185;-83
2020/12/10 01:26:42;;;;;;;;;;;;;;;-2.67;96.64;92073.78;1063715;55;20255;-83
2020/12/10 01:27:43;;;;;;;;;;;;;;;-2.61;97.09;92074.94;1063653;55;20180;-83
2020/12/10 01:28:43;;;;;;;;;;;;;;;-2.61;96.45;92074.94;1063603;55;20586;-84
2020/12/10 01:29:43;;;;;;;;;;;;;;;-2.57;96.69;92072.38;1061515;56;20149;-84
2020/12/10 01:30:44;;;;;;;;;;;;;;;-2.58;96.90;92069.00;1061555;56;20169;-84
2020/12/10 01:31:46;;;;;;;;;;;;;;;-2.67;97.58;92068.53;1061515;56;20186;-82
2020/12/10 01:32:47;;;;;;;;;;;;;;;-2.72;97.61;92078.56;1063990;55;20153;-83
2020/12/10 01:33:47;;;;;;;;;;;;;;;-2.71;98.95;92075.59;1065782;55;20176;-84
2020/12/10 01:34:48;;;;;;;;;;;;;;;-2.73;98.44;92071.81;1068112;55;20157;-83
2020/12/10 01:35:48;;;;;;;;;;;;;;;-2.71;98.84;92074.84;1065908;55;20161;-83
2020/12/10 01:36:50;;;;;;;;;;;;;;;-2.63;98.62;92079.78;1063678;55;20177;-82
2020/12/10 01:37:51;;;;;;;;;;;;;;;-2.48;97.62;92082.56;1065836;55;20193;-83
2020/12/10 01:38:51;;;;;;;;;;;;;;;-2.37;97.11;92070.31;1063625;55;20587;-85
2020/12/10 01:39:52;;;;;;;;;;;;;;;-2.34;96.24;92072.22;1063615;55;20158;-83
2020/12/10 01:40:52;;;;;;;;;;;;;;;-2.34;96.18;92070.34;1061408;56;20252;-83
2020/12/10 01:41:53;;;;;;;;;;;;;;;-2.35;95.62;92065.47;1061418;56;20595;-87
2020/12/10 01:42:53;;;;;;;;;;;;;;;-2.39;95.99;92068.06;1063619;55;20204;-83
2020/12/10 01:44:00;;;;;;;;;;;;;;;-2.46;96.41;92064.63;1063386;55;20161;-82
2020/12/10 01:45:01;;;;;;;;;;;;;;;-2.46;96.63;92062.75;1064104;55;20193;-83
2020/12/10 01:46:02;;;;;;;;;;;;;;;-2.48;96.51;92059.00;1065798;55;21092;-82
2020/12/10 01:47:02;;;;;;;;;;;;;;;-2.59;97.77;92051.03;1065837;55;20174;-83
2020/12/10 01:48:03;;;;;;;;;;;;;;;-2.59;97.85;92058.87;1063669;55;20158;-83
2020/12/10 01:49:04;;;;;;;;;;;;;;;-2.62;98.29;92060.38;1063580;55;20162;-82
2020/12/10 01:50:05;;;;;;;;;;;;;;;-2.57;97.94;92056.69;1065793;55;20208;-85
2020/12/10 01:51:07;;;;;;;;;;;;;;;-2.53;98.17;92050.38;1065775;55;20173;-83
2020/12/10 01:52:09;;;;;;;;;;;;;;;-2.51;98.34;92042.16;1065937;55;20195;-87
2020/12/10 01:53:10;;;;;;;;;;;;;;;-2.51;98.64;92049.25;1065820;55;20157;-82
2020/12/10 01:54:11;;;;;;;;;;;;;;;-2.56;99.44;92042.47;1063493;55;20201;-84
2020/12/10 01:55:11;;;;;;;;;;;;;;;-2.58;99.14;92045.47;1061447;56;20667;-83
2020/12/10 01:56:12;;;;;;;;;;;;;;;-2.58;99.29;92044.72;1061451;56;20181;-82
2020/12/10 01:57:12;;;;;;;;;;;;;;;-2.61;99.25;92050.66;1063634;55;20157;-83
2020/12/10 01:58:12;;;;;;;;;;;;;;;-2.64;99.10;92044.28;1063615;55;20606;-83
2020/12/10 01:59:13;;;;;;;;;;;;;;;-2.54;99.33;92041.03;1063636;55;20927;-83
2020/12/10 02:00:13;;;;;;;;;;;;;;;-2.44;98.61;92034.38;1063690;55;21142;-84
2020/12/10 02:01:16;;;;;;;;;;;;;;;-2.31;97.96;92037.47;1065835;55;20250;-83
2020/12/10 02:02:16;;;;;;;;;;;;;;;-2.28;97.27;92034.91;1063569;55;20181;-83
2020/12/10 02:03:17;;;;;;;;;;;;;;;-2.16;96.29;92038.34;1063731;55;20238;-83
2020/12/10 02:04:34;;;;;;;;;;;;;;;-2.23;95.76;92033.06;1065703;55;20177;-84
2020/12/10 02:05:41;;;;;;;;;;;;;;;-2.28;95.92;92036.75;1066460;55;20176;-83
2020/12/10 02:06:42;;;;;;;;;;;;;;;-2.40;96.31;92029.94;1067888;55;20209;-84
2020/12/10 02:07:42;;;;;;;;;;;;;;;-2.48;97.41;92032.84;1065621;55;20172;-84
2020/12/10 02:08:43;;;;;;;;;;;;;;;-2.51;97.64;92029.06;1067996;55;20157;-82
2020/12/10 02:09:43;;;;;;;;;;;;;;;-2.43;97.54;92029.91;1067774;55;20613;-83
2020/12/10 02:10:44;;;;;;;;;;;;;;;-2.47;97.61;92024.62;1065702;55;20153;-84
2020/12/10 02:11:45;;;;;;;;;;;;;;;-2.31;97.18;92019.91;1065684;55;20185;-83
2020/12/10 02:12:46;;;;;;;;;;;;;;;-2.29;96.65;92024.78;1063786;55;20170;-83
2020/12/10 02:13:46;;;;;;;;;;;;;;;-2.26;96.26;92034.53;1063525;55;20244;-83
2020/12/10 02:14:47;;;;;;;;;;;;;;;-2.42;96.82;92032.12;1063638;55;20165;-83
2020/12/10 02:15:48;;;;;;;;;;;;;;;-2.37;96.76;92031.06;1063570;55;20173;-84
2020/12/10 02:16:55;;;;;;;;;;;;;;;-2.46;97.33;92031.34;1065854;55;20161;-84
2020/12/10 02:17:55;;;;;;;;;;;;;;;-2.46;97.62;92023.50;1064068;55;20185;-81
2020/12/10 02:18:56;;;;;;;;;;;;;;;-2.45;97.84;92022.41;1063746;55;20603;-84
2020/12/10 02:19:56;;;;;;;;;;;;;;;-2.47;97.27;92018.66;1063732;55;20166;-83
2020/12/10 02:20:57;;;;;;;;;;;;;;;-2.49;97.77;92024.25;1065859;55;20161;-83
2020/12/10 02:21:57;;;;;;;;;;;;;;;-2.45;97.52;92013.81;1065656;55;20176;-83
2020/12/10 02:22:59;;;;;;;;;;;;;;;-2.40;97.70;92022.09;1063490;55;20626;-85
2020/12/10 02:23:59;;;;;;;;;;;;;;;-2.35;96.95;92013.16;1063679;55;20614;-85
2020/12/10 02:25:00;;;;;;;;;;;;;;;-2.43;96.86;92014.19;1061410;56;20162;-83
2020/12/10 02:26:01;;;;;;;;;;;;;;;-2.39;97.17;92010.50;1063532;55;20680;-87
2020/12/10 02:27:02;;;;;;;;;;;;;;;-2.34;97.23;92012.78;1061386;56;20165;-84
2020/12/10 02:28:03;;;;;;;;;;;;;;;-2.45;96.90;92019.06;1063575;55;20158;-84
2020/12/10 02:29:05;;;;;;;;;;;;;;;-2.44;97.07;92002.22;1068053;55;20168;-83
2020/12/10 02:30:05;;;;;;;;;;;;;;;-2.47;97.69;92016.03;1070083;55;20593;-83
2020/12/10 02:31:06;;;;;;;;;;;;;;;-2.53;98.10;92005.91;1065894;55;20157;-86
2020/12/10 02:32:06;;;;;;;;;;;;;;;-2.46;98.81;92012.28;1065857;55;20169;-84
2020/12/10 02:33:08;;;;;;;;;;;;;;;-2.51;98.46;92015.25;1067857;55;20188;-83
2020/12/10 02:34:09;;;;;;;;;;;;;;;-2.50;98.21;92006.28;1065572;55;20185;-83
2020/12/10 02:35:10;;;;;;;;;;;;;;;-2.51;97.92;92005.53;1063699;55;20166;-83
2020/12/10 02:36:10;;;;;;;;;;;;;;;-2.59;97.10;92002.12;1061519;56;20654;-83
2020/12/10 02:37:11;;;;;;;;;;;;;;;-2.58;97.50;92000.25;1061321;56;20162;-85
2020/12/10 02:38:11;;;;;;;;;;;;;;;-2.58;97.56;92006.22;1065713;55;20185;-84
2020/12/10 02:39:12;;;;;;;;;;;;;;;-2.58;98.16;91995.78;1065903;55;20189;-82
2020/12/10 02:40:12;;;;;;;;;;;;;;;-2.61;98.15;91993.88;1067964;55;20183;-82
2020/12/10 02:41:14;;;;;;;;;;;;;;;-2.68;98.18;91999.03;1067957;55;20172;-83
2020/12/10 02:42:14;;;;;;;;;;;;;;;-2.64;98.62;91993.81;1065620;55;20258;-82
2020/12/10 02:43:15;;;;;;;;;;;;;;;-2.51;98.07;91989.09;1061438;55;20256;-84
2020/12/10 02:44:16;;;;;;;;;;;;;;;-2.50;97.61;91987.97;1062543;55;20943;-84
2020/12/10 02:45:17;;;;;;;;;;;;;;;-2.61;97.25;91982.66;1063768;55;20270;-85
2020/12/10 02:46:19;;;;;;;;;;;;;;;-2.61;97.52;91987.88;1063718;55;20635;-83
2020/12/10 02:47:19;;;;;;;;;;;;;;;-2.65;98.51;91987.09;1065775;55;20165;-83
2020/12/10 02:48:19;;;;;;;;;;;;;;;-2.65;98.37;91982.63;1068001;55;20165;-83
2020/12/10 02:49:20;;;;;;;;;;;;;;;-2.53;97.92;91974.50;1065885;55;20181;-83
2020/12/10 02:50:21;;;;;;;;;;;;;;;-2.59;98.14;91983.81;1067844;55;20250;-83
2020/12/10 02:51:22;;;;;;;;;;;;;;;-2.63;98.09;91972.56;1065885;55;20150;-84
2020/12/10 02:52:22;;;;;;;;;;;;;;;-2.63;98.65;91980.41;1063655;55;20259;-83
2020/12/10 02:53:23;;;;;;;;;;;;;;;-2.65;99.54;91974.03;1065567;55;20173;-83
2020/12/10 02:54:23;;;;;;;;;;;;;;;-2.61;98.81;91980.78;1067905;55;20645;-86
2020/12/10 02:55:23;;;;;;;;;;;;;;;-2.62;99.35;91984.53;1063506;55;20158;-83
2020/12/10 02:56:24;;;;;;;;;;;;;;;-2.57;99.11;91978.22;1065644;55;20173;-84
2020/12/10 02:57:24;;;;;;;;;;;;;;;-2.51;99.10;91981.22;1065714;55;20185;-84
2020/12/10 02:58:25;;;;;;;;;;;;;;;-2.49;98.67;91979.78;1061550;56;20186;-84
2020/12/10 02:59:25;;;;;;;;;;;;;;;-2.55;98.62;91981.97;1063577;55;20166;-83
2020/12/10 03:00:26;;;;;;;;;;;;;;;-2.53;98.93;91981.59;1065910;55;20157;-84
2020/12/10 03:01:26;;;;;;;;;;;;;;;-2.55;98.93;91979.34;1065685;55;20172;-83
2020/12/10 03:02:26;;;;;;;;;;;;;;;-2.64;98.62;91972.91;1063510;55;20189;-85
2020/12/10 03:03:27;;;;;;;;;;;;;;;-2.54;99.03;91978.25;1063414;55;20150;-82
2020/12/10 03:04:27;;;;;;;;;;;;;;;-2.51;99.25;91973.38;1063711;55;20150;-82
2020/12/10 03:05:28;;;;;;;;;;;;;;;-2.54;98.87;91965.16;1065769;55;20224;-84
2020/12/10 03:06:28;;;;;;;;;;;;;;;-2.50;98.73;91967.81;1067876;55;20215;-83
2020/12/10 03:07:29;;;;;;;;;;;;;;;-2.46;98.56;91962.59;1063634;55;20162;-82
2020/12/10 03:08:29;;;;;;;;;;;;;;;-2.44;98.68;91965.59;1063757;55;20161;-83
2020/12/10 03:09:30;;;;;;;;;;;;;;;-2.56;99.54;91964.75;1063545;55;20204;-84
2020/12/10 03:10:31;;;;;;;;;;;;;;;-2.51;99.09;91962.91;1063714;55;20185;-82
2020/12/10 03:11:31;;;;;;;;;;;;;;;-2.51;99.24;91966.28;1063615;55;20247;-82
2020/12/10 03:12:33;;;;;;;;;;;;;;;-2.49;99.67;91968.56;1063594;55;20181;-84
2020/12/10 03:13:33;;;;;;;;;;;;;;;-2.43;99.40;91961.88;1065674;55;21067;-83
2020/12/10 03:14:36;;;;;;;;;;;;;;;-2.43;99.34;91962.63;1067850;55;20160;-84
2020/12/10 03:15:39;;;;;;;;;;;;;;;-2.47;98.58;91955.84;1067866;55;20168;-83
2020/12/10 03:16:39;;;;;;;;;;;;;;;-2.47;99.28;91951.38;1067922;55;20245;-82
2020/12/10 03:17:39;;;;;;;;;;;;;;;-2.31;98.83;91945.91;1067848;55;20719;-83
2020/12/10 03:18:40;;;;;;;;;;;;;;;-2.35;98.37;91951.09;1065886;55;20157;-83
2020/12/10 03:19:40;;;;;;;;;;;;;;;-2.44;98.27;91944.69;1063488;55;20251;-83
2020/12/10 03:20:41;;;;;;;;;;;;;;;-2.48;98.32;91944.66;1063562;55;20185;-83
2020/12/10 03:21:41;;;;;;;;;;;;;;;-2.48;99.21;91949.12;1065781;55;20157;-84
2020/12/10 03:22:42;;;;;;;;;;;;;;;-2.44;98.48;91944.69;1063692;55;20185;-83
2020/12/10 03:23:43;;;;;;;;;;;;;;;-2.45;99.00;91945.78;1063950;55;20169;-82
2020/12/10 03:24:43;;;;;;;;;;;;;;;-2.54;98.74;91948.72;1068047;55;20170;-84
2020/12/10 03:25:44;;;;;;;;;;;;;;;-2.47;98.62;91942.78;1062067;55;20154;-84
2020/12/10 03:26:44;;;;;;;;;;;;;;;-2.47;98.56;91942.78;1065610;55;20173;-84
2020/12/10 03:27:46;;;;;;;;;;;;;;;-2.51;98.91;91937.50;1065896;55;20204;-82
2020/12/10 03:28:46;;;;;;;;;;;;;;;-2.33;98.82;91941.03;1068002;55;20671;-84
2020/12/10 03:29:47;;;;;;;;;;;;;;;-2.32;98.29;91942.53;1070150;55;20149;-84
2020/12/10 03:30:49;;;;;;;;;;;;;;;-2.39;97.86;91936.50;1065759;55;20302;-82
2020/12/10 03:31:49;;;;;;;;;;;;;;;-2.51;98.82;91936.75;1065703;55;20192;-83
2020/12/10 03:32:50;;;;;;;;;;;;;;;-2.57;99.11;91934.50;1065702;55;20162;-84
2020/12/10 03:33:50;;;;;;;;;;;;;;;-2.58;98.61;91930.37;1061324;56;20188;-86
2020/12/10 03:34:51;;;;;;;;;;;;;;;-2.58;99.34;91930.37;1061993;56;20166;-86
2020/12/10 03:35:52;;;;;;;;;;;;;;;-2.49;98.77;91924.09;1065687;55;20668;-82
2020/12/10 03:36:53;;;;;;;;;;;;;;;-2.46;99.25;91923.34;1065447;55;20185;-83
2020/12/10 03:37:54;;;;;;;;;;;;;;;-2.48;98.76;91926.34;1063493;55;20194;-81
2020/12/10 03:38:54;;;;;;;;;;;;;;;-2.48;99.04;91925.59;1063526;55;20153;-83
2020/12/10 03:39:54;;;;;;;;;;;;;;;-2.44;99.08;91924.50;1063514;55;20258;-83
2020/12/10 03:40:55;;;;;;;;;;;;;;;-2.44;99.17;91921.87;1063580;55;20181;-83
2020/12/10 03:41:56;;;;;;;;;;;;;;;-2.33;98.41;91916.72;1065711;55;20180;-84
2020/12/10 03:42:58;;;;;;;;;;;;;;;-2.36;97.71;91914.84;1064556;55;20707;-86
2020/12/10 03:43:59;;;;;;;;;;;;;;;-2.38;97.92;91907.34;1065660;55;20251;-83
2020/12/10 03:45:00;;;;;;;;;;;;;;;-2.42;98.58;91911.78;1063263;55;20157;-83
2020/12/10 03:46:00;;;;;;;;;;;;;;;-2.40;98.38;91900.97;1063456;55;20158;-84
2020/12/10 03:47:01;;;;;;;;;;;;;;;-2.44;98.65;91905.44;1065732;55;20161;-83
2020/12/10 03:48:01;;;;;;;;;;;;;;;-2.47;98.31;91914.75;1063504;55;20162;-83
2020/12/10 03:49:01;;;;;;;;;;;;;;;-2.41;98.02;91907.34;1063389;55;20165;-83
2020/12/10 03:50:04;;;;;;;;;;;;;;;-2.41;97.64;91899.47;1063490;55;20610;-83
2020/12/10 03:51:06;;;;;;;;;;;;;;;-2.43;98.49;91907.69;1063707;55;20197;-83
2020/12/10 03:52:07;;;;;;;;;;;;;;;-2.43;99.01;91902.44;1061477;55;20179;-85
2020/12/10 03:53:08;;;;;;;;;;;;;;;-2.22;98.15;91904.44;1063590;55;20176;-83
2020/12/10 03:54:09;;;;;;;;;;;;;;;-2.24;97.92;91904.06;1065644;55;20165;-85
2020/12/10 03:55:09;;;;;;;;;;;;;;;-2.26;98.06;91906.28;1063580;55;20154;-85
2020/12/10 03:56:09;;;;;;;;;;;;;;;-2.27;98.81;91896.94;1063503;55;20578;-85
2020/12/10 03:57:11;;;;;;;;;;;;;;;-2.34;98.44;91896.91;1065586;55;20273;-83
2020/12/10 03:58:11;;;;;;;;;;;;;;;-2.35;98.63;91896.16;1063321;55;20687;-83
2020/12/10 03:59:12;;;;;;;;;;;;;;;-2.34;98.35;91884.56;1061370;56;20256;-84
2020/12/10 04:00:12;;;;;;;;;;;;;;;-2.32;97.50;91892.06;1063476;55;20192;-83
2020/12/10 04:01:13;;;;;;;;;;;;;;;-2.28;97.53;91888.34;1063423;55;20605;-83
2020/12/10 04:02:13;;;;;;;;;;;;;;;-2.26;97.58;91892.47;1065653;55;20283;-83
2020/12/10 04:03:14;;;;;;;;;;;;;;;-2.28;97.06;91890.22;1063494;55;20708;-84
2020/12/10 04:04:14;;;;;;;;;;;;;;;-2.28;97.10;91885.72;1063476;55;20170;-83
2020/12/10 04:05:16;;;;;;;;;;;;;;;-2.28;97.28;91887.59;1061419;55;20174;-83
2020/12/10 04:06:16;;;;;;;;;;;;;;;-2.32;97.26;91886.84;1061311;56;20181;-84
2020/12/10 04:07:17;;;;;;;;;;;;;;;-2.33;97.20;91891.31;1061240;56;20162;-84
2020/12/10 04:08:17;;;;;;;;;;;;;;;-2.26;98.33;91887.97;1063399;55;20662;-83
2020/12/10 04:09:17;;;;;;;;;;;;;;;-2.25;98.37;91883.50;1065615;55;20161;-83
2020/12/10 04:10:18;;;;;;;;;;;;;;;-2.22;97.46;91886.13;1063342;55;20154;-84
2020/12/10 04:11:19;;;;;;;;;;;;;;;-2.35;97.95;91879.69;1061305;56;20158;-84
2020/12/10 04:12:19;;;;;;;;;;;;;;;-2.29;98.24;91878.97;1061424;55;20189;-81
2020/12/10 04:13:20;;;;;;;;;;;;;;;-2.05;97.61;91876.87;1063444;55;20161;-83
2020/12/10 04:14:20;;;;;;;;;;;;;;;-2.05;96.86;91882.84;1063437;55;20607;-83
2020/12/10 04:15:21;;;;;;;;;;;;;;;-2.06;97.06;91883.22;1063489;55;20170;-85
2020/12/10 04:16:21;;;;;;;;;;;;;;;-2.13;97.39;91876.09;1063504;55;20162;-83
2020/12/10 04:17:22;;;;;;;;;;;;;;;-2.23;97.89;91874.16;1061445;56;20169;-82
2020/12/10 04:18:22;;;;;;;;;;;;;;;-2.20;97.86;91875.28;1065579;55;20180;-83
2020/12/10 04:19:22;;;;;;;;;;;;;;;-2.06;98.10;91875.37;1063566;55;20154;-85
2020/12/10 04:20:23;;;;;;;;;;;;;;;-2.22;97.64;91873.03;1063363;55;20161;-84
2020/12/10 04:21:23;;;;;;;;;;;;;;;-2.32;97.99;91874.50;1063448;55;20169;-82
2020/12/10 04:22:24;;;;;;;;;;;;;;;-2.25;98.45;91878.25;1063667;55;20154;-82
2020/12/10 04:23:24;;;;;;;;;;;;;;;-2.21;99.32;91874.53;1063561;55;20189;-84
2020/12/10 04:24:24;;;;;;;;;;;;;;;-2.15;98.59;91870.47;1061419;56;20200;-85
2020/12/10 04:25:25;;;;;;;;;;;;;;;-2.05;97.70;91882.84;1063621;55;20178;-83
2020/12/10 04:26:25;;;;;;;;;;;;;;;-2.03;96.94;91877.25;1065805;55;20173;-84
2020/12/10 04:27:26;;;;;;;;;;;;;;;-2.01;97.38;91871.66;1063666;55;20320;-85
2020/12/10 04:28:27;;;;;;;;;;;;;;;-2.07;97.52;91879.09;1061554;56;20154;-83
2020/12/10 04:29:27;;;;;;;;;;;;;;;-2.14;98.28;91877.22;1065735;55;20243;-83
2020/12/10 04:30:27;;;;;;;;;;;;;;;-2.11;97.82;91879.09;1065607;55;20649;-83
2020/12/10 04:31:28;;;;;;;;;;;;;;;-2.16;97.73;91879.44;1063722;55;20157;-83
2020/12/10 04:32:28;;;;;;;;;;;;;;;-2.24;98.05;91879.75;1063677;55;20594;-82
2020/12/10 04:33:29;;;;;;;;;;;;;;;-2.10;98.15;91875.34;1065780;55;20161;-83
2020/12/10 04:34:29;;;;;;;;;;;;;;;-2.16;98.21;91879.44;1065634;55;20150;-84
2020/12/10 04:35:30;;;;;;;;;;;;;;;-2.19;98.10;91882.03;1065757;55;20613;-84
2020/12/10 04:36:30;;;;;;;;;;;;;;;-2.14;98.20;91879.06;1067905;55;20184;-83
2020/12/10 04:37:30;;;;;;;;;;;;;;;-2.15;97.72;91875.72;1070216;55;20157;-82
2020/12/10 04:38:32;;;;;;;;;;;;;;;-2.11;97.96;91880.94;1063775;55;21176;-85
2020/12/10 04:39:32;;;;;;;;;;;;;;;-2.13;97.54;91876.09;1063552;55;20305;-83
2020/12/10 04:40:34;;;;;;;;;;;;;;;-2.23;97.84;91883.87;1061433;55;20256;-86
2020/12/10 04:41:36;;;;;;;;;;;;;;;-2.27;98.51;91870.78;1063501;55;20583;-83
2020/12/10 04:42:40;;;;;;;;;;;;;;;-2.25;98.30;91881.63;1063774;55;20233;-83
2020/12/10 04:43:42;;;;;;;;;;;;;;;-2.05;98.42;91872.38;1065850;55;20262;-83
2020/12/10 04:44:45;;;;;;;;;;;;;;;-2.20;98.00;91875.28;1063405;55;20255;-84
2020/12/10 04:45:45;;;;;;;;;;;;;;;-2.25;97.97;91870.41;1065693;55;20193;-83
2020/12/10 04:46:46;;;;;;;;;;;;;;;-2.24;98.07;91869.28;1063518;55;20980;-82
2020/12/10 04:47:48;;;;;;;;;;;;;;;-2.26;98.37;91871.53;1063556;55;20247;-85
2020/12/10 04:48:49;;;;;;;;;;;;;;;-2.19;98.55;91868.97;1063639;55;20188;-84
2020/12/10 04:49:51;;;;;;;;;;;;;;;-2.18;98.08;91871.19;1061539;55;20162;-83
2020/12/10 04:50:53;;;;;;;;;;;;;;;-2.22;97.61;91873.03;1061511;55;20202;-83
2020/12/10 04:51:55;;;;;;;;;;;;;;;-2.15;98.49;91867.84;1063564;55;20595;-83
2020/12/10 04:52:57;;;;;;;;;;;;;;;-2.12;97.53;91871.59;1063470;55;20197;-87
2020/12/10 04:53:59;;;;;;;;;;;;;;;-2.15;98.28;91873.09;1061546;55;20251;-83
2020/12/10 04:54:59;;;;;;;;;;;;;;;-2.14;98.25;91868.59;1061461;55;20201;-83
2020/12/10 04:56:04;;;;;;;;;;;;;;;-2.18;97.80;91868.59;1063582;55;20154;-84
2020/12/10 04:57:09;;;;;;;;;;;;;;;-2.24;98.28;91867.41;1065665;55;20193;-83
2020/12/10 04:58:09;;;;;;;;;;;;;;;-2.12;97.21;91871.59;1061669;55;20180;-82
2020/12/10 04:59:10;;;;;;;;;;;;;;;-2.09;96.82;91871.62;1061295;56;20173;-83
2020/12/10 05:00:13;;;;;;;;;;;;;;;-2.21;97.59;91860.72;1061383;56;20162;-83
2020/12/10 05:01:16;;;;;;;;;;;;;;;-2.11;97.06;91860.78;1061574;55;20158;-83
2020/12/10 05:02:19;;;;;;;;;;;;;;;-2.17;97.00;91867.47;1065651;55;21004;-84
2020/12/10 05:03:19;;;;;;;;;;;;;;;-2.16;97.61;91868.94;1063664;55;20188;-83
2020/12/10 05:04:21;;;;;;;;;;;;;;;-2.13;97.20;91865.59;1061462;56;20583;-84
2020/12/10 05:05:25;;;;;;;;;;;;;;;-1.98;97.24;91853.31;1061569;55;20205;-84
2020/12/10 05:06:27;;;;;;;;;;;;;;;-2.16;97.40;91863.72;1061740;55;20267;-81
2020/12/10 05:07:40;;;;;;;;;;;;;;;-2.23;97.68;91855.84;1061385;56;20185;-84
2020/12/10 05:08:40;;;;;;;;;;;;;;;-2.32;97.86;91868.50;1066423;55;20184;-83
2020/12/10 05:09:55;;;;;;;;;;;;;;;-2.23;98.54;91870.81;1067858;55;20254;-82
2020/12/10 05:10:56;;;;;;;;;;;;;;;-2.28;98.05;91864.06;1064011;55;20196;-85
2020/12/10 05:11:57;;;;;;;;;;;;;;;-2.16;98.38;91865.59;1063580;55;20651;-85
2020/12/10 05:13:05;;;;;;;;;;;;;;;-2.23;98.44;91866.31;1065767;55;20232;-84
2020/12/10 05:14:05;;;;;;;;;;;;;;;-2.19;98.52;91861.84;1065742;55;20262;-84
2020/12/10 05:15:06;;;;;;;;;;;;;;;-2.12;98.32;91859.25;1061351;56;20639;-83
2020/12/10 05:16:20;;;;;;;;;;;;;;;-2.09;98.07;91849.94;1063541;55;20203;-85
2020/12/10 05:17:21;;;;;;;;;;;;;;;-2.20;98.36;91859.59;1065602;55;20232;-82
2020/12/10 05:18:22;;;;;;;;;;;;;;;-2.19;98.97;91856.62;1063286;55;20274;-83